Íslenskir flugvellir

Veldu flugvelli í þeirri röð sem þeir eiga að birtast og styddu á hnappinn

Uppfært síðast 23.07.2019 - kl. 22:52

SIGMET síðustu 6 klst.

Engin SIGMET skeyti bárust síðustu 6 klst.

Egilsstaðir

METAR síðustu 3 klst

TímiSkeyti
2019-07-23 22.00METAR BIEG 232200Z 36010KT 9999 SCT015 OVC030 09/07 Q1011 RMK WIND GAGNHEIDI 04014KT
2019-07-23 21.00METAR BIEG 232100Z 36011KT 9999 SCT015 OVC030 09/07 Q1011 RMK WIND GAGNHEIDI 07015KT
2019-07-23 20.00METAR BIEG 232000Z 36010KT 9999 SCT013 OVC025 09/07 Q1010 RMK WIND GAGNHEIDI 04014KT

TAF

TAFBIEG2019-07-23 22.14Z24000001010KT 7000 -DZ BR SCT010 BKN015 OVC025 TX08/2400Z TN07/2403Z PROB40 TEMPO 2400/2405 5000 -DZ BR BKN010 OVC015 TEMPO 2405/2421 2500 RADZ BR OVC006 BECMG 2421/2500 VRB02KT PROB40 TEMPO 2421/2500 1500 DZ BR OVC003

Allur vindur er réttvísandi bæði í Metar og frá sjálfvirkum veðurstöðvum




Aðrir tengdir vefir



Þetta vefsvæði byggir á Eplica